Ayeneux - Challenge de la Province de Liège

Le jogging de la fête à Ayeneux (5.00 km)

samedi 22 juillet 2017

Le classement original se trouve sur : http://www.cjpl.eu/challenge/        
CHALLENGE DE LA PROVINCE DE LIEGE
LE JOGGING DE LA FETE - AYENEUX
DISTANCE : 5.00 km
samedi 22 juillet 2017
 
Place dos NOM EQUIPE Catégorie Pl/cat temps temps/km Vitesse
1 2314 JEROME LEDUC TDCH DÉB. HOMME 1 0:18:24 03:41 16.30
2 2333 JEAN ERIC ANDRE   DÉB. HOMME 2 0:18:51 03:46 15.92
3 2295 YVES GARIN ATHL DÉB. HOMME 3 0:19:19 03:52 15.53
4 2275 CHRISTOPHE DEMARCHE FOOD2RUN DÉB. HOMME 4 0:19:49 03:58 15.14
5 2298 ANTONINO OLEFS ATTITUDE DÉB. HOMME 5 0:20:12 04:02 14.85
6 2302 BRUNO VAN CAELENBERG TEAM DÉB. HOMME 6 0:20:18 04:04 14.78
7 2278 ARTHUR RADERMECKER HERVE GARÇON 12<>15 1 0:21:17 04:15 14.10
8 2329 FRANCOIS BODSON   DÉB. HOMME 7 0:21:40 04:20 13.85
9 301 JEAN-LUC BOVI RFCL DÉB. HOMME 8 0:21:42 04:20 13.82
10 235 LIONEL KALIN HF GARÇON 12<>15 2 0:22:07 04:25 13.56
11 394 FLORIAN HAMIOT ATHLE GARÇON 12<>15 3 0:22:34 04:31 13.29
12 2277 TOM RADERMECKER HERVE GARÇON 12<>15 4 0:22:57 04:35 13.07
13 2263 WILLIAM DOBBELSTEIN RFCL XXX   0:23:07 04:37 12.98
14 2257 JACQUES BASTAGNE   DÉB. HOMME 9 0:23:27 04:41 12.79
15 2331 HUGO BONHOMME RFCL XXX   0:23:27 04:41 12.79
16 2313 ALAIN TOMBEUR   DÉB. HOMME 10 0:23:47 04:45 12.61
17 2309 FRANCIS SMETS TEAM DÉB. HOMME 11 0:24:07 04:49 12.44
18 2267 ANDRE PIRON SERUNNERS DÉB. HOMME 12 0:24:30 04:54 12.24
19 2303 LUC BELOT TEAM DÉB. HOMME 13 0:24:39 04:56 12.17
20 2274 ARTHUR HECK   GARÇON 12<>15 5 0:24:44 04:57 12.13
21 2332 LIESBETH VANNESTE TEAM DÉB. FILLE 1 0:24:50 04:58 12.08
22 2297 ARTHUR PIERRE   GARÇON 12<>15 6 0:25:20 05:04 11.84
23 2308 MARTIN MOREAU   DÉB. HOMME 14 0:25:35 05:07 11.73
24 2264 XAVIER DOBBELSTEIN   DÉB. HOMME 15 0:25:44 05:09 11.66
25 2273 ALEXANDRE VANDENBOSSCHE   GARÇON 12<>15 7 0:25:48 05:10 11.63
26 2286 LUCAS MONSEZ HERVE GARÇON 12<>15 8 0:26:32 05:18 11.31
27 2317 JEAN DEWIL RFCL DÉB. HOMME 16 0:26:35 05:19 11.29
28 2296 CAROLINE MERTENS ATHL DÉB. FILLE 2 0:26:36 05:19 11.28
29 2299 ROMAIN BRAGARD   DÉB. HOMME 17 0:26:39 05:20 11.26
30 2327 ARNAUD DEMARTEAU   DÉB. HOMME 18 0:26:40 05:20 11.25
31 2307 JUSTIN DUYSENS DUYS XXX   0:26:48 05:22 11.19
32 139 LÉA RIBANT FAGNE FILLE 12<>15 1 0:26:48 05:22 11.19
33 324 THOMAS CRESSON HERVE GARÇON 12<>15 9 0:26:53 05:23 11.16
34 2284 JEAN LOU PAULUS SERUNNERS DÉB. HOMME 19 0:26:54 05:23 11.15
35 2283 THIERRY RIBANT   DÉB. HOMME 20 0:26:57 05:23 11.13
36 2304 LOUISE LEFORT MEHAGNE XXX   0:27:04 05:25 11.08
37 2285 BASTIEN MONSEZ HERVE GARÇON 12<>15 10 0:27:15 05:27 11.01
38 2306 CHRISTOPHE DUYSENS DUYS DÉB. HOMME 21 0:27:21 05:28 10.97
39 2252 ANDRIEN ZDYCH   GARÇON 12<>15 11 0:27:39 05:32 10.85
40 2270 PHILIPPE FOURNY SERUNNERS DÉB. HOMME 22 0:27:54 05:35 10.75
41 2280 FABRICE DEMARCHE   DÉB. HOMME 23 0:28:10 05:38 10.65
42 2265 GAEL DOBBELSTEIN   XXX   0:28:14 05:39 10.63
43 2291 ANDY GONAY   GARÇON 12<>15 12 0:28:47 05:45 10.42
44 2311 EMMANUELLE RENARD   DÉB. FILLE 3 0:29:09 05:50 10.29
45 2325 ARTHUR COKAIKO   GARÇON 12<>15 13 0:29:11 05:50 10.28
46 2288 STEPHANE GEORGES   DÉB. HOMME 24 0:29:18 05:52 10.24
47 31 AURORE RIGO   FILLE 12<>15 2 0:29:39 05:56 10.12
48 2259 RUDY ROBBI SERUNNERS DÉB. HOMME 25 0:29:51 05:58 10.05
49 2330 ERIC BONHOMME   DÉB. HOMME 26 0:30:00 06:00 10.00
50 2310 LUDIVIC DASSY   DÉB. HOMME 27 0:30:23 06:05 9.87
51 2279 MURIEL GILLES   DÉB. FILLE 4 0:31:37 06:19 9.49
52 2318 JORDANE NIVARLET   DÉB. FILLE 5 0:32:00 06:24 9.38
53 2293 KEVIN CLENERS   DÉB. HOMME 28 0:32:00 06:24 9.38
54 2312 LAETITIA DEMARTEAU   DÉB. FILLE 6 0:32:01 06:24 9.37
55 2262 SOPHIE BARLA SERUNNERS DÉB. FILLE 7 0:32:02 06:24 9.37
56 2276 MANON FIEVET   DÉB. FILLE 8 0:32:05 06:25 9.35
57 2253 MARIE CEGLIELKA   DÉB. FILLE 9 0:32:13 06:27 9.31
58 2294 ROMY SPAGNOLI JCPMF DÉB. FILLE 10 0:32:52 06:34 9.13
59 2287 SYLVIE NOLEVAUX   DÉB. FILLE 11 0:33:03 06:37 9.08
60 2281 KATTY MATRICHE SERUNNERS DÉB. FILLE 12 0:33:08 06:38 9.05
61 2272 JACQUELINE JANSSEN SERUNNERS DÉB. FILLE 13 0:33:09 06:38 9.05
62 2282 EVA VAN WONTERGHEM SERUNNERS DÉB. FILLE 14 0:33:09 06:38 9.05
63 2322 LAURA MELLET   DÉB. FILLE 15 0:33:18 06:40 9.01
64 2260 HELENE MANSET   DÉB. FILLE 16 0:33:23 06:41 8.99
65 2328 PINO POLLARA SERUNNERS DÉB. HOMME 29 0:33:32 06:42 8.95
66 2266 MONIQUE DELVIGNE SERUNNERS DÉB. FILLE 17 0:33:36 06:43 8.93
67 2320 WILLIAM HECHT   DÉB. HOMME 30 0:33:51 06:46 8.86
68 2321 RAPHAELE FRANCO   DÉB. FILLE 18 0:33:51 06:46 8.86
69 2319 KEVIN ANCION   DÉB. HOMME 31 0:33:52 06:46 8.86
70 2255 XAVIER ROGISTER   DÉB. HOMME 32 0:33:57 06:47 8.84
71 2251 MICHEL BABE REHTEUX DÉB. HOMME 33 0:34:22 06:52 8.73
72 2292 MELANIE HALLEUX   DÉB. FILLE 19 0:34:29 06:54 8.70
73 2326 ALICE COKAIKO   FILLE 12<>15 3 0:35:09 07:02 8.53
74 2256 ANNE MARIE LECLOU SERUNNERS DÉB. FILLE 20 0:35:15 07:03 8.51
75 2261 AMELIE KREIT   DÉB. FILLE 21 0:35:25 07:05 8.47
76 2315 DAMIEN GILLIS JUPILLE DÉB. HOMME 34 0:36:30 07:18 8.22
77 2324 AMELIE COKAIKO   DÉB. FILLE 22 0:36:42 07:20 8.17
78 2289 ALEX RASKIN   DÉB. HOMME 35 0:37:02 07:24 8.10
79 2290 VINCIANE GILLIS   DÉB. FILLE 23 0:38:13 07:39 7.85
80 2316 PATRICK NOEL JUPILLE DÉB. HOMME 36 0:38:49 07:46 7.73
81 2271 CLAUDIA TONACHELLA SERUNNERS DÉB. FILLE 24 0:38:53 07:47 7.72
82 2323 ANAIS COKAIKO   DÉB. FILLE 25 0:40:47 08:09 7.36
83 2301 PETER BRAGARD   DÉB. HOMME 37 0:41:18 08:16 7.26
84 2268 CHRISTINE BADA SERUNNERS DÉB. FILLE 26 0:43:07 08:37 6.96
85 2269 PATRICK COUNE SERUNNERS DÉB. HOMME 38 0:43:07 08:37 6.96
                 
Nos dernières videos